This is the latest recevied weather packets stored in our database for station/object DG8SF-13. If no packets are shown the sender has not sent any weather packets the latest 10 day(s).
| Time | Temp. | Humidity | Pressure | Rain* | Wind** | Luminosity | Snow |
|---|---|---|---|---|---|---|---|
| 1787408754 | 21.11° C | 54% | 1019 hPa | 0 mm | - | - | - |
| 1787408429 | 22.22° C | 50% | 1018.9 hPa | 0 mm | - | - | - |
| 1787408119 | 21.67° C | 49% | 1018.9 hPa | 0 mm | - | - | - |
| 1787407805 | 21.67° C | 50% | 1018.8 hPa | 0 mm | - | - | - |
| 1787407495 | 22.78° C | 48% | 1018.8 hPa | 0 mm | - | - | - |
| 1787407181 | 21.11° C | 51% | 1018.8 hPa | 0 mm | - | - | - |
| 1787406870 | 19.44° C | 53% | 1018.9 hPa | 0 mm | - | - | - |
| 1787406557 | 19.44° C | 54% | 1019 hPa | 0 mm | - | - | - |
| 1787406248 | 19.44° C | 55% | 1019.1 hPa | 0 mm | - | - | - |
| 1787405922 | 19.44° C | 55% | 1019 hPa | 0 mm | - | - | - |
| 1787405610 | 19.44° C | 56% | 1019 hPa | 0 mm | - | - | - |
| 1787405298 | 19.44° C | 57% | 1019 hPa | 0 mm | - | - | - |
| 1787404986 | 19.44° C | 57% | 1019 hPa | 0 mm | - | - | - |
| 1787404661 | 19.44° C | 57% | 1019 hPa | 0 mm | - | - | - |
| 1787404341 | 19.44° C | 56% | 1019.1 hPa | 0 mm | - | - | - |
| 1787404025 | 20° C | 54% | 1019 hPa | 0 mm | - | - | - |
| 1787403715 | 19.44° C | 53% | 1018.9 hPa | 0 mm | - | - | - |
| 1787403401 | 20.56° C | 54% | 1019 hPa | 0 mm | - | - | - |
| 1787403090 | 21.11° C | 53% | 1018.9 hPa | 0 mm | - | - | - |
| 1787402777 | 21.11° C | 55% | 1018.8 hPa | 0 mm | - | - | - |
| 1787402454 | 21.11° C | 56% | 1018.6 hPa | 0 mm | - | - | - |
| 1787402145 | 20.56° C | 55% | 1018.7 hPa | 0 mm | - | - | - |
| 1787401829 | 20.56° C | 54% | 1018.6 hPa | 0 mm | - | - | - |
| 1787401518 | 19.44° C | 57% | 1018.7 hPa | 0 mm | - | - | - |
| 1787401205 | 19.44° C | 59% | 1018.7 hPa | 0 mm | - | - | - |
* Rain latest hour (hover to see other rain measurements)
** Current wind speed in m/s (hover to see current wind gust speed)